Weather at Copenhagen Kastrup Airport

Public forecast

Using degrees Celsius for public forecast. Weather courtesy of forecast.io.

Current aviation weather report (METAR) for Copenhagen Kastrup Airport

Retrieved 2022/06/30 10:20 UTC (0 seconds ago):

EKCH 301020Z AUTO 17004KT 130V230 9999 NCD 23/13 Q1015 NOSIG

Aviation forecast (TAF) for Copenhagen Kastrup Airport

Retrieved 2022/06/30 06:31 UTC (4 hours ago):

TAF EKCH 300502Z 3006/0106 07008KT CAVOK